Meteo Giornale » Osservazioni meteo Stati Uniti (USA) » Reno/Stead
ore: 11:55 - Osservazioni Meteo Reno/Stead
Lat. 39° 40' N Lon. 119° 53' W Alt. 1540 metri s.l.m.
23 °C
Sereno
Temp. 24 Ore
16 °C
30 °C
Ovest/Sud-Ovest
25.9 Km/h
Dew point -5 °C
Umidità 14 %
Visibilità 10 Km
Il sole sorge alle ore 06:28
Il sole tramonta alle ore 19:30
| Data e Ora | Cielo e Fenomeni | T °C | DP °C | Um. % | Pres. hPa | Vis. km | Vento km/h | |
|---|---|---|---|---|---|---|---|---|
| Oggi h: 11:55 | Sereno | 23 | -5 | 14 | 1016 | 10 | O/SO 25.9 | |
| Oggi h: 11:35 | Sereno | 23 | -7 | 12 | 1016 | 10 | S/SO 27.8 | |
| Oggi h: 11:15 | Sereno | 22 | -6 | 14 | 1016 | 10 | SO 16.7 | |
| Oggi h: 10:55 | Sereno | 22 | -5 | 15 | 1016 | 10 | SO 20.3 | |
| Oggi h: 10:35 | Sereno | 22 | -4 | 17 | 1016 | 10 | SO 20.3 | |
| Oggi h: 10:15 | Sereno | 21 | -4 | 18 | 1016 | 10 | S/SO 29.6 | |
| Oggi h: 09:55 | Sereno | 21 | -4 | 18 | 1016 | 10 | S/SO 27.8 | |
| Oggi h: 09:35 | Sereno | 21 | -3 | 19 | 1016 | 10 | SO 29.6 | |
| Oggi h: 09:15 | Sereno | 20 | -2 | 22 | 1016 | 10 | SO 20.3 | |
| Oggi h: 08:55 | Sereno | 19 | -2 | 24 | 1016 | 10 | SO 22.2 | |
| Oggi h: 08:35 | Sereno | 19 | -4 | 20 | 1016 | 10 | S/SE 7.4 | |
| Oggi h: 08:15 | Sereno | 18 | -5 | 20 | 1016 | 10 | SO 13 | |
| Oggi h: 07:55 | Sereno | 18 | -6 | 18 | 1016 | 10 | O/SO 20.3 | |
| Oggi h: 07:35 | Sereno | 18 | -6 | 18 | 1015 | 10 | O/SO 27.8 | |
| Oggi h: 07:15 | Sereno | 16 | -3 | 26 | 1016 | 10 | O 24 | |
| Oggi h: 06:55 | Sereno | 17 | -6 | 20 | 1016 | 10 | O 25.9 | |
| Oggi h: 06:35 | Sereno | 16 | -2 | 29 | 1015 | 10 | O 18.5 | |
| Oggi h: 06:15 | Sereno | 17 | -6 | 20 | 1015 | 10 | NO 20.3 | |
| Oggi h: 05:55 | Sereno | 17 | -4 | 23 | 1015 | 10 | NO 11.1 | |
| Oggi h: 05:35 | Sereno | 16 | -1 | 31 | 1015 | 10 | O 22.2 | |
| Oggi h: 05:15 | Sereno | 16 | -1 | 31 | 1015 | 10 | O 31.5 | |
| Oggi h: 04:55 | Sereno | 17 | -2 | 27 | 1015 | 10 | O/SO 25.9 | |
| Oggi h: 04:35 | Sereno | 18 | -2 | 25 | 1015 | 10 | O/SO 38.8 | |
| Oggi h: 04:15 | Sereno | 17 | -1 | 29 | 1015 | 10 | O 24 | |
| Oggi h: 03:55 | Sereno | 18 | 0 | 29 | 1015 | 10 | O/SO 31.5 | |
| Oggi h: 03:35 | Sereno | 18 | 0 | 29 | 1015 | 10 | O/SO 33.3 | |
| Oggi h: 03:15 | Poco Nuvoloso | 18 | 0 | 29 | 1015 | 10 | O/SO 40.7 | |
| Oggi h: 02:55 | Poco Nuvoloso | 18 | 1 | 31 | 1015 | 10 | O/SO 27.8 | |
| Oggi h: 02:35 | Molto Nuvoloso | 18 | 0 | 29 | 1015 | 10 | O 35.2 | |
| Oggi h: 02:15 | Molto Nuvoloso | 19 | -1 | 25 | 1015 | 10 | O/SO 24 | |
| Oggi h: 01:55 | Nuvoloso | 19 | -2 | 24 | 1015 | 10 | O/SO 35.2 | |
| Oggi h: 01:35 | Poco Nuvoloso | 19 | -2 | 24 | 1015 | 10 | O 22.2 | |
| Oggi h: 01:15 | Nuvoloso | 19 | -1 | 25 | 1015 | 10 | O 16.7 | |
| Oggi h: 00:45 | Molto Nuvoloso | 20 | -2 | 22 | 1015 | 10 | SO 20.3 | |
| Oggi h: 00:35 | Nuvoloso | 19 | -1 | 25 | 1015 | 10 | O/SO 13 | |
| Oggi h: 00:15 | Sereno | 19 | 0 | 27 | 1015 | 10 | N 9.3 | |
| Ieri h: 23:55 | Sereno | 18 | 1 | 31 | 1015 | 10 | O/NO 24 | |
| Ieri h: 23:35 | Sereno | 19 | 1 | 29 | 1015 | 10 | O 25.9 | |
| Ieri h: 23:15 | Nuvoloso | 19 | 1 | 29 | 1015 | 10 | O 25.9 | |
| Ieri h: 22:55 | Molto Nuvoloso | 19 | 1 | 29 | 1015 | 10 | O 22.2 | |
| Ieri h: 22:35 | Sereno | 19 | 1 | 29 | 1016 | 10 | O/SO 27.8 | |
| Ieri h: 22:15 | Sereno | 19 | 2 | 32 | 1015 | 10 | O 18.5 | |
| Ieri h: 21:55 | Sereno | 19 | 2 | 32 | 1015 | 10 | O/SO 33.3 | |
| Ieri h: 21:35 | Sereno | 20 | 1 | 28 | 1016 | 10 | O 22.2 | |
| Ieri h: 21:15 | Sereno | 20 | 1 | 28 | 1016 | 10 | O 25.9 | |
| Ieri h: 20:55 | Sereno | 20 | 1 | 28 | 1015 | 10 | O/NO 13 | |
| Ieri h: 20:35 | Sereno | 20 | 1 | 28 | 1015 | 10 | O 18.5 | |
| Ieri h: 20:15 | Poco Nuvoloso | 21 | 1 | 26 | 1015 | 10 | O/NO 20.3 | |
| Ieri h: 19:55 | Poco Nuvoloso | 21 | 0 | 24 | 1015 | 10 | O/NO 16.7 | |
| Ieri h: 19:35 | Sereno | 22 | 1 | 24 | 1015 | 10 | O/NO 24 | |
| Ieri h: 19:15 | Sereno | 22 | 1 | 24 | 1014 | 10 | O/NO 27.8 | |
| Ieri h: 18:55 | Sereno | 23 | 1 | 23 | 1014 | 10 | O 38.8 | |
| Ieri h: 18:35 | Sereno | 24 | 1 | 22 | 1014 | 10 | O 25.9 | |
| Ieri h: 18:15 | Sereno | 25 | 1 | 20 | 1014 | 10 | O 29.6 | |
| Ieri h: 17:55 | Sereno | 26 | 1 | 19 | 1014 | 10 | O/SO 31.5 | |
| Ieri h: 17:35 | Sereno | 27 | 1 | 18 | 1014 | 10 | O/SO 33.3 | |
| Ieri h: 17:10 | Sereno | 28 | 0 | 16 | 1014 | 10 | SO 18.5 | |
| Ieri h: 16:55 | Sereno | 28 | -1 | 15 | 1014 | 10 | O 20.3 | |
| Ieri h: 16:35 | Nuvoloso | 29 | -2 | 13 | 1014 | 10 | NO 27.8 | |
| Ieri h: 16:15 | Poco Nuvoloso | 29 | -2 | 13 | 1014 | 10 | O/NO 27.8 | |
| Ieri h: 15:55 | Sereno | 29 | -2 | 13 | 1014 | 10 | O/SO 16.7 | |
| Ieri h: 15:35 | Poco Nuvoloso | 30 | -3 | 11 | 1014 | 10 | O 22.2 | |
| Ieri h: 15:15 | Nuvoloso | 29 | -3 | 12 | 1014 | 10 | O/SO 13 | |
| Ieri h: 14:55 | Molto Nuvoloso | 27 | -2 | 14 | 1015 | 10 | S 14.8 | |
| Ieri h: 14:35 | Nuvoloso | 27 | -2 | 14 | 1015 | 10 | N 0 | |
| Ieri h: 14:15 | Sereno | 27 | -2 | 14 | 1015 | 10 | E 7.4 | |
| Ieri h: 13:55 | Sereno | 27 | -2 | 14 | 1015 | 10 | N 0 | |
| Ieri h: 13:35 | Sereno | 28 | -3 | 12 | 1015 | 10 | SE 18.5 | |
| Ieri h: 13:15 | Sereno | 27 | -4 | 12 | 1016 | 10 | S/SE 18.5 | |
| Ieri h: 12:55 | Sereno | 27 | -4 | 12 | 1016 | 10 | E/SE 20.3 | |
| Ieri h: 12:35 | Sereno | 27 | -4 | 12 | 1016 | 10 | E/SE 14.8 | |



